createdAt,value
2018-12-21T00:00:45.051Z,8.60
2018-12-21T00:03:12.757Z,8.50
2018-12-21T00:05:40.296Z,8.50
2018-12-21T00:08:07.830Z,8.50
2018-12-21T00:10:35.358Z,8.50
2018-12-21T00:13:03.040Z,8.50
2018-12-21T00:15:30.667Z,8.50
2018-12-21T00:17:58.215Z,8.40
2018-12-21T00:20:25.741Z,8.40
2018-12-21T00:22:53.243Z,8.40
2018-12-21T00:25:20.663Z,8.40
2018-12-21T00:27:48.175Z,8.40
2018-12-21T00:30:21.649Z,8.40
2018-12-21T00:32:55.522Z,8.40
2018-12-21T00:35:28.840Z,8.40
2018-12-21T00:38:02.186Z,8.40
2018-12-21T00:40:35.546Z,8.40
2018-12-21T00:43:09.034Z,8.40
2018-12-21T00:45:42.571Z,8.40
2018-12-21T00:48:10.127Z,8.40
2018-12-21T00:50:37.836Z,8.40
2018-12-21T00:53:05.386Z,8.40
2018-12-21T00:55:32.954Z,8.40
2018-12-21T00:58:00.456Z,8.40
2018-12-21T01:00:27.972Z,8.40
2018-12-21T01:02:55.609Z,8.50
2018-12-21T01:05:23.174Z,8.50
2018-12-21T01:07:50.791Z,8.50
2018-12-21T01:10:18.416Z,8.50
2018-12-21T01:12:45.961Z,8.50
2018-12-21T01:15:13.594Z,8.60
2018-12-21T01:17:41.326Z,8.60
2018-12-21T01:20:08.920Z,8.60
2018-12-21T01:22:37.265Z,8.60
2018-12-21T01:25:05.128Z,8.60
2018-12-21T01:27:32.677Z,8.70
2018-12-21T01:30:00.258Z,8.60
2018-12-21T01:32:27.733Z,8.70
2018-12-21T01:34:55.293Z,8.70
2018-12-21T01:37:23.228Z,8.60
2018-12-21T01:39:50.695Z,8.60
2018-12-21T01:42:18.149Z,8.70
2018-12-21T01:44:45.615Z,8.60
2018-12-21T01:47:13.069Z,8.70
2018-12-21T01:49:40.527Z,8.70
2018-12-21T01:52:08.065Z,8.70
2018-12-21T01:54:35.683Z,8.60
2018-12-21T01:57:03.355Z,8.60
2018-12-21T01:59:30.958Z,8.60
2018-12-21T02:01:58.446Z,8.60
2018-12-21T02:04:26.036Z,8.60
2018-12-21T02:06:53.647Z,8.60
2018-12-21T02:09:21.259Z,8.60
2018-12-21T02:11:48.715Z,8.60
2018-12-21T02:14:16.171Z,8.60
2018-12-21T02:16:43.671Z,8.60
2018-12-21T02:19:11.246Z,8.60
2018-12-21T02:21:38.741Z,8.60
2018-12-21T02:24:06.128Z,8.60
2018-12-21T02:26:33.646Z,8.60
2018-12-21T02:29:01.230Z,8.60
2018-12-21T02:31:28.741Z,8.60
2018-12-21T02:33:56.285Z,8.60
2018-12-21T02:36:23.751Z,8.60
2018-12-21T02:38:51.287Z,8.60
2018-12-21T02:41:18.844Z,8.70
2018-12-21T02:43:46.439Z,8.70
2018-12-21T02:46:13.911Z,8.70
2018-12-21T02:48:41.391Z,8.70
2018-12-21T02:51:08.900Z,8.70
2018-12-21T02:53:36.392Z,8.70
2018-12-21T02:56:03.892Z,8.70
2018-12-21T02:58:31.416Z,8.70
2018-12-21T03:00:58.944Z,8.70
2018-12-21T03:03:26.464Z,8.70
2018-12-21T03:05:53.898Z,8.70
2018-12-21T03:08:21.367Z,8.70
2018-12-21T03:10:48.843Z,8.80
2018-12-21T03:13:16.321Z,8.80
2018-12-21T03:15:43.795Z,8.80
2018-12-21T03:18:11.298Z,8.80
2018-12-21T03:20:38.791Z,8.80
2018-12-21T03:23:06.299Z,8.80
2018-12-21T03:25:33.769Z,8.90
2018-12-21T03:28:01.294Z,8.90
2018-12-21T03:30:28.912Z,8.90
2018-12-21T03:32:56.501Z,8.90
2018-12-21T03:35:24.102Z,8.90
2018-12-21T03:37:51.587Z,8.90
2018-12-21T03:40:19.195Z,8.90
2018-12-21T03:42:46.655Z,8.90
2018-12-21T03:45:14.276Z,9.00
2018-12-21T03:47:41.738Z,9.00
2018-12-21T03:50:09.348Z,9.00
2018-12-21T03:52:36.975Z,9.00
2018-12-21T03:55:05.007Z,9.00
2018-12-21T03:57:32.451Z,9.10
2018-12-21T04:00:00.040Z,9.10
2018-12-21T04:02:27.605Z,9.10
2018-12-21T04:04:55.060Z,9.10
2018-12-21T04:07:22.512Z,9.10
2018-12-21T04:09:49.985Z,9.10
2018-12-21T04:12:17.612Z,9.10
2018-12-21T04:14:45.097Z,9.00
2018-12-21T04:17:12.572Z,9.10
2018-12-21T04:19:40.033Z,9.10
2018-12-21T04:22:07.551Z,9.10
2018-12-21T04:24:35.027Z,9.00
2018-12-21T04:27:02.507Z,9.00
2018-12-21T04:29:29.999Z,9.10
2018-12-21T04:31:57.542Z,9.00
2018-12-21T04:34:25.081Z,9.10
2018-12-21T04:36:52.670Z,9.00
2018-12-21T04:39:20.160Z,8.90
2018-12-21T04:41:47.660Z,8.90
2018-12-21T04:44:15.208Z,8.80
2018-12-21T04:46:43.097Z,8.80
2018-12-21T04:49:10.549Z,8.70
2018-12-21T04:51:38.182Z,8.60
2018-12-21T04:54:05.649Z,8.50
2018-12-21T04:56:33.123Z,8.50
2018-12-21T04:59:00.561Z,8.40
2018-12-21T05:01:28.032Z,8.30
2018-12-21T05:03:55.508Z,8.20
2018-12-21T05:06:23.109Z,8.10
2018-12-21T05:08:50.584Z,8.00
2018-12-21T05:11:18.111Z,8.00
2018-12-21T05:13:45.784Z,7.90
2018-12-21T05:16:13.408Z,7.90
2018-12-21T05:18:40.884Z,7.90
2018-12-21T05:21:08.346Z,7.80
2018-12-21T05:23:35.926Z,7.80
2018-12-21T05:26:03.500Z,7.90
2018-12-21T05:28:30.954Z,7.80
2018-12-21T05:30:58.407Z,7.80
2018-12-21T05:33:25.857Z,7.80
2018-12-21T05:35:53.314Z,7.80
2018-12-21T05:38:20.788Z,7.80
2018-12-21T05:40:48.244Z,7.80
2018-12-21T05:43:15.706Z,7.80
2018-12-21T05:45:43.190Z,7.80
2018-12-21T05:48:10.780Z,7.80
2018-12-21T05:50:38.235Z,7.80
2018-12-21T05:53:05.619Z,7.80
2018-12-21T05:55:33.152Z,7.80
2018-12-21T05:58:00.635Z,7.90
2018-12-21T06:00:28.142Z,7.80
2018-12-21T06:02:55.617Z,7.90
2018-12-21T06:05:23.157Z,7.90
2018-12-21T06:07:50.657Z,7.90
2018-12-21T06:10:18.141Z,7.90
2018-12-21T06:12:45.637Z,7.80
2018-12-21T06:15:13.127Z,7.80
2018-12-21T06:17:40.580Z,7.80
2018-12-21T06:20:08.198Z,7.80
2018-12-21T06:22:35.703Z,7.70
2018-12-21T06:25:03.484Z,7.80
2018-12-21T06:27:30.979Z,7.80
2018-12-21T06:29:58.478Z,7.70
2018-12-21T06:32:25.959Z,7.80
2018-12-21T06:34:53.441Z,7.80
2018-12-21T06:37:21.177Z,7.80
2018-12-21T06:39:48.989Z,7.80
2018-12-21T06:42:16.435Z,7.80
2018-12-21T06:44:43.895Z,7.90
2018-12-21T06:47:11.375Z,7.90
2018-12-21T06:49:38.873Z,7.90
2018-12-21T06:52:06.368Z,7.90
2018-12-21T06:54:33.828Z,7.90
2018-12-21T06:57:01.322Z,7.90
2018-12-21T06:59:28.821Z,8.00
2018-12-21T07:01:56.391Z,8.00
2018-12-21T07:04:23.854Z,8.00
2018-12-21T07:06:51.311Z,8.10
2018-12-21T07:09:18.847Z,8.10
2018-12-21T07:11:46.560Z,8.10
2018-12-21T07:14:14.057Z,8.10
2018-12-21T07:16:41.621Z,8.20
2018-12-21T07:19:09.063Z,8.20
2018-12-21T07:21:36.587Z,8.30
2018-12-21T07:24:04.089Z,8.30
2018-12-21T07:26:31.563Z,8.30
2018-12-21T07:28:58.987Z,8.30
2018-12-21T07:31:26.483Z,8.30
2018-12-21T07:33:54.141Z,8.30
2018-12-21T07:36:21.593Z,8.20
2018-12-21T07:38:49.118Z,8.20
2018-12-21T07:41:16.587Z,8.20
2018-12-21T07:43:44.096Z,8.20
2018-12-21T07:46:13.226Z,8.20
2018-12-21T07:48:41.109Z,8.10
2018-12-21T07:51:08.775Z,8.10
2018-12-21T07:53:36.295Z,8.10
2018-12-21T07:56:03.957Z,8.10
2018-12-21T07:58:31.419Z,8.10
2018-12-21T08:00:58.870Z,8.20
2018-12-21T08:03:26.326Z,8.20
2018-12-21T08:05:53.812Z,8.20
2018-12-21T08:08:21.292Z,8.20
2018-12-21T08:10:48.812Z,8.20
2018-12-21T08:13:16.284Z,8.20
2018-12-21T08:15:43.759Z,8.20
2018-12-21T08:18:11.189Z,8.20
2018-12-21T08:20:38.730Z,8.20
2018-12-21T08:23:06.319Z,8.20
2018-12-21T08:25:33.773Z,8.20
2018-12-21T08:28:01.305Z,8.30
2018-12-21T08:30:28.844Z,8.30
2018-12-21T08:32:56.311Z,8.20
2018-12-21T08:35:23.759Z,8.20
2018-12-21T08:37:51.231Z,8.20
2018-12-21T08:40:18.667Z,8.20
2018-12-21T08:42:46.023Z,8.20
2018-12-21T08:45:13.457Z,8.30
2018-12-21T08:47:41.059Z,8.20
2018-12-21T08:50:09.991Z,8.20
2018-12-21T08:52:37.535Z,8.30
2018-12-21T08:55:05.715Z,8.30
2018-12-21T08:57:33.195Z,8.40
2018-12-21T09:00:00.717Z,8.50
2018-12-21T09:02:28.163Z,8.50
2018-12-21T09:04:55.639Z,8.60
2018-12-21T09:07:23.109Z,8.60
2018-12-21T09:09:50.575Z,8.70
2018-12-21T09:12:18.068Z,8.70
2018-12-21T09:14:45.532Z,8.70
2018-12-21T09:17:13.087Z,8.80
2018-12-21T09:19:40.568Z,8.80
2018-12-21T09:22:08.031Z,8.80
2018-12-21T09:24:35.490Z,8.80
2018-12-21T09:27:03.173Z,8.80
2018-12-21T09:29:30.630Z,8.80
2018-12-21T09:32:05.081Z,8.80
2018-12-21T09:34:27.886Z,8.80
2018-12-21T09:36:55.344Z,8.90
2018-12-21T09:39:22.814Z,8.90
2018-12-21T09:41:50.256Z,8.90
2018-12-21T09:44:17.760Z,8.90
2018-12-21T09:46:45.616Z,9.00
2018-12-21T09:49:13.144Z,9.00
2018-12-21T09:51:40.612Z,9.10
2018-12-21T09:54:10.084Z,9.10
2018-12-21T09:56:37.605Z,9.10
2018-12-21T09:59:05.105Z,9.20
2018-12-21T10:01:32.589Z,9.20
2018-12-21T10:04:00.148Z,9.20
2018-12-21T10:06:28.594Z,9.20
2018-12-21T10:08:56.090Z,9.30
2018-12-21T10:11:23.533Z,9.40
2018-12-21T10:13:51.108Z,9.40
2018-12-21T10:16:18.532Z,9.50
2018-12-21T10:18:45.965Z,9.60
2018-12-21T10:21:13.418Z,9.70
2018-12-21T10:23:40.908Z,9.70
2018-12-21T10:26:08.380Z,9.80
2018-12-21T10:28:35.747Z,9.90
2018-12-21T10:31:03.344Z,10.00
2018-12-21T10:33:30.799Z,10.10
2018-12-21T10:35:58.291Z,10.20
2018-12-21T10:38:25.917Z,10.30
2018-12-21T10:40:53.435Z,10.40
2018-12-21T10:43:20.907Z,10.50
2018-12-21T10:45:48.391Z,10.60
2018-12-21T10:48:15.903Z,10.80
2018-12-21T10:50:43.377Z,11.00
2018-12-21T10:53:10.827Z,11.20
2018-12-21T10:55:38.271Z,11.50
2018-12-21T10:58:05.745Z,11.60
2018-12-21T11:00:33.240Z,11.80
2018-12-21T11:03:00.755Z,11.90
2018-12-21T11:05:28.206Z,12.10
2018-12-21T11:07:55.679Z,12.20
2018-12-21T11:10:23.193Z,12.30
2018-12-21T11:12:50.639Z,12.40
2018-12-21T11:15:18.087Z,12.50
2018-12-21T11:17:45.542Z,12.60
2018-12-21T11:20:13.004Z,12.80
2018-12-21T11:22:40.440Z,12.90
2018-12-21T11:25:09.816Z,13.10
2018-12-21T11:27:37.664Z,13.20
2018-12-21T11:30:05.854Z,13.30
2018-12-21T11:32:33.325Z,13.40
2018-12-21T11:35:00.794Z,13.60
2018-12-21T11:37:28.251Z,13.60
2018-12-21T11:39:55.750Z,13.70
2018-12-21T11:42:23.353Z,13.70
2018-12-21T11:44:50.813Z,13.80
2018-12-21T11:47:18.271Z,13.90
2018-12-21T11:49:46.645Z,14.00
2018-12-21T11:52:14.152Z,14.00
2018-12-21T11:54:44.421Z,14.10
2018-12-21T11:57:11.016Z,14.20
2018-12-21T11:59:44.800Z,14.20
2018-12-21T12:02:08.811Z,14.30
2018-12-21T12:04:36.252Z,14.30
2018-12-21T12:07:03.687Z,14.30
2018-12-21T12:09:31.127Z,14.40
2018-12-21T12:11:58.567Z,14.40
2018-12-21T12:14:26.053Z,14.50
2018-12-21T12:16:53.545Z,14.50
2018-12-21T12:19:21.758Z,14.50
2018-12-21T12:21:49.236Z,14.60
2018-12-21T12:24:16.771Z,14.60
2018-12-21T12:26:44.483Z,14.60
2018-12-21T12:29:12.249Z,14.60
2018-12-21T12:31:39.707Z,14.70
2018-12-21T12:34:07.169Z,14.70
2018-12-21T12:36:34.808Z,14.70
2018-12-21T12:39:02.701Z,14.80
2018-12-21T12:41:30.155Z,14.80
2018-12-21T12:43:57.663Z,14.90
2018-12-21T12:46:25.159Z,14.90
2018-12-21T12:48:52.717Z,14.90
2018-12-21T12:51:20.132Z,14.90
2018-12-21T12:53:47.647Z,14.80
2018-12-21T12:56:15.092Z,14.80
2018-12-21T12:58:42.533Z,14.80
2018-12-21T13:01:10.119Z,14.80
2018-12-21T13:03:37.603Z,14.80
2018-12-21T13:06:05.083Z,14.80
2018-12-21T13:08:32.543Z,14.80
2018-12-21T13:10:59.993Z,14.80
2018-12-21T13:13:27.331Z,14.80
2018-12-21T13:15:54.811Z,14.90
2018-12-21T13:18:22.270Z,14.90
2018-12-21T13:20:49.799Z,15.00
2018-12-21T13:23:17.335Z,15.00
2018-12-21T13:25:44.807Z,15.00
2018-12-21T13:28:12.357Z,15.00
2018-12-21T13:30:39.911Z,14.90
2018-12-21T13:33:07.428Z,14.90
2018-12-21T13:35:34.988Z,14.90
2018-12-21T13:38:02.395Z,14.90
2018-12-21T13:40:29.849Z,14.90
2018-12-21T13:42:57.313Z,14.90
2018-12-21T13:45:24.763Z,14.90
2018-12-21T13:47:52.203Z,14.90
2018-12-21T13:50:19.679Z,14.90
2018-12-21T13:52:47.147Z,14.90
2018-12-21T13:55:20.297Z,14.90
2018-12-21T13:57:44.098Z,14.80
2018-12-21T14:00:11.577Z,14.80
2018-12-21T14:02:39.023Z,14.80
2018-12-21T14:05:07.067Z,14.70
2018-12-21T14:07:34.591Z,14.70
2018-12-21T14:10:02.187Z,14.70
2018-12-21T14:12:29.643Z,14.70
2018-12-21T14:14:57.103Z,14.70
2018-12-21T14:17:24.545Z,14.70
2018-12-21T14:19:51.998Z,14.70
2018-12-21T14:22:19.495Z,14.70
2018-12-21T14:24:47.002Z,14.70
2018-12-21T14:27:14.460Z,14.60
2018-12-21T14:29:41.931Z,14.60
2018-12-21T14:32:09.428Z,14.60
2018-12-21T14:34:36.896Z,14.60
2018-12-21T14:37:04.472Z,14.60
2018-12-21T14:39:31.960Z,14.50
2018-12-21T14:41:59.432Z,14.50
2018-12-21T14:44:26.868Z,14.50
2018-12-21T14:46:54.350Z,14.50
2018-12-21T14:49:21.850Z,14.50
2018-12-21T14:51:49.348Z,14.50
2018-12-21T14:54:16.833Z,14.40
2018-12-21T14:56:44.484Z,14.40
2018-12-21T14:59:11.972Z,14.40
2018-12-21T15:01:39.484Z,14.40
2018-12-21T15:04:07.069Z,14.50
2018-12-21T15:06:34.632Z,14.40
2018-12-21T15:09:03.276Z,14.40
2018-12-21T15:11:30.790Z,14.40
2018-12-21T15:13:58.218Z,14.40
2018-12-21T15:16:25.775Z,14.30
2018-12-21T15:18:53.296Z,14.40
2018-12-21T15:21:20.808Z,14.30
2018-12-21T15:23:48.269Z,14.40
2018-12-21T15:26:15.729Z,14.30
2018-12-21T15:28:43.187Z,14.30
2018-12-21T15:31:10.689Z,14.30
2018-12-21T15:33:38.155Z,14.20
2018-12-21T15:36:05.716Z,14.20
2018-12-21T15:38:33.234Z,14.10
2018-12-21T15:41:00.858Z,14.00
2018-12-21T15:43:28.307Z,14.00
2018-12-21T15:45:55.783Z,13.90
2018-12-21T15:48:23.316Z,13.80
2018-12-21T15:50:51.036Z,13.80
2018-12-21T15:53:18.523Z,13.70
2018-12-21T15:55:54.592Z,13.70
2018-12-21T15:58:15.570Z,13.60
2018-12-21T16:00:43.063Z,13.60
2018-12-21T16:03:10.487Z,13.60
2018-12-21T16:05:37.975Z,13.50
2018-12-21T16:08:05.452Z,13.50
2018-12-21T16:10:32.915Z,13.50
2018-12-21T16:13:00.391Z,13.50
2018-12-21T16:15:27.827Z,13.50
2018-12-21T16:17:55.324Z,13.40
2018-12-21T16:20:22.800Z,13.40
2018-12-21T16:22:50.226Z,13.40
2018-12-21T16:25:17.711Z,13.40
2018-12-21T16:27:45.723Z,13.30
2018-12-21T16:30:13.203Z,13.30
2018-12-21T16:32:40.664Z,13.30
2018-12-21T16:35:08.251Z,13.20
2018-12-21T16:37:35.772Z,13.20
2018-12-21T16:40:04.055Z,13.20
2018-12-21T16:42:31.511Z,13.30
2018-12-21T16:44:58.994Z,13.10
2018-12-21T16:47:27.071Z,13.10
2018-12-21T16:49:54.519Z,13.10
2018-12-21T16:52:22.087Z,13.10
2018-12-21T16:54:49.597Z,13.10
2018-12-21T16:57:23.735Z,13.00
2018-12-21T16:59:51.209Z,13.00
2018-12-21T17:02:18.683Z,13.00
2018-12-21T17:04:46.165Z,13.00
2018-12-21T17:07:13.639Z,13.00
2018-12-21T17:09:41.163Z,13.00
2018-12-21T17:12:08.685Z,13.00
2018-12-21T17:14:36.191Z,13.00
2018-12-21T17:17:05.057Z,13.00
2018-12-21T17:19:32.730Z,12.90
2018-12-21T17:22:00.439Z,13.00
2018-12-21T17:24:27.867Z,12.90
2018-12-21T17:26:55.323Z,12.90
2018-12-21T17:29:22.787Z,12.80
2018-12-21T17:31:50.216Z,12.80
2018-12-21T17:34:17.721Z,12.80
2018-12-21T17:36:45.279Z,12.70
2018-12-21T17:39:12.709Z,12.70
2018-12-21T17:41:40.277Z,12.80
2018-12-21T17:44:07.753Z,12.70
2018-12-21T17:46:35.243Z,12.70
2018-12-21T17:49:03.239Z,12.70
2018-12-21T17:51:30.711Z,12.70
2018-12-21T17:53:58.197Z,12.70
2018-12-21T17:56:29.822Z,12.70
2018-12-21T17:58:55.266Z,12.70
2018-12-21T18:01:23.595Z,12.70
2018-12-21T18:03:58.031Z,12.70
2018-12-21T18:06:25.543Z,12.70
2018-12-21T18:08:52.979Z,12.70
2018-12-21T18:11:20.459Z,12.70
2018-12-21T18:13:48.403Z,12.70
2018-12-21T18:16:15.890Z,12.60
2018-12-21T18:18:43.343Z,12.70
2018-12-21T18:21:10.869Z,12.70
2018-12-21T18:23:39.203Z,12.70
2018-12-21T18:26:13.349Z,12.70
2018-12-21T18:28:40.989Z,12.70
2018-12-21T18:31:23.331Z,12.70
2018-12-21T18:33:51.162Z,12.70
2018-12-21T18:36:18.679Z,12.80
2018-12-21T18:38:46.233Z,12.70
2018-12-21T18:41:13.736Z,12.70
2018-12-21T18:43:41.322Z,12.70
2018-12-21T18:46:08.801Z,12.70
2018-12-21T18:48:36.267Z,12.70
2018-12-21T18:51:03.711Z,12.70
2018-12-21T18:53:31.196Z,12.70
2018-12-21T18:55:59.103Z,12.70
2018-12-21T18:58:26.568Z,12.70
2018-12-21T19:00:54.079Z,12.70
2018-12-21T19:03:21.795Z,12.70
2018-12-21T19:05:49.347Z,12.70
2018-12-21T19:08:16.807Z,12.70
2018-12-21T19:10:44.347Z,12.70
2018-12-21T19:13:11.868Z,12.70
2018-12-21T19:15:39.360Z,12.70
2018-12-21T19:18:06.968Z,12.70
2018-12-21T19:20:34.491Z,12.70
2018-12-21T19:23:02.035Z,12.70
2018-12-21T19:25:29.538Z,12.70
2018-12-21T19:27:57.016Z,12.70
2018-12-21T19:30:25.204Z,12.70
2018-12-21T19:32:52.973Z,12.70
2018-12-21T19:35:27.455Z,12.70
2018-12-21T19:37:49.980Z,12.70
2018-12-21T19:40:17.505Z,12.70
2018-12-21T19:42:45.028Z,12.70
2018-12-21T19:45:13.553Z,12.70
2018-12-21T19:47:41.148Z,12.70
2018-12-21T19:50:09.779Z,12.60
2018-12-21T19:52:37.326Z,12.60
2018-12-21T19:56:14.166Z,12.60
2018-12-21T19:58:41.653Z,12.60
2018-12-21T20:01:09.143Z,12.50
2018-12-21T20:03:36.648Z,12.50
2018-12-21T20:06:04.219Z,12.50
2018-12-21T20:08:32.027Z,12.50
2018-12-21T20:10:59.594Z,12.40
2018-12-21T20:13:27.071Z,12.40
2018-12-21T20:15:54.569Z,12.40
2018-12-21T20:18:22.023Z,12.40
2018-12-21T20:20:49.510Z,12.40
2018-12-21T20:23:17.034Z,12.30
2018-12-21T20:25:44.835Z,12.30
2018-12-21T20:28:12.474Z,12.30
2018-12-21T20:30:39.998Z,12.30
2018-12-21T20:33:07.521Z,12.20
2018-12-21T20:35:35.249Z,12.20
2018-12-21T20:38:03.197Z,12.20
2018-12-21T20:40:30.729Z,12.10
2018-12-21T20:42:58.212Z,12.10
2018-12-21T20:45:25.691Z,12.10
2018-12-21T20:47:53.182Z,12.10
2018-12-21T20:50:20.720Z,12.00
2018-12-21T20:52:48.426Z,12.00
2018-12-21T20:55:16.055Z,12.00
2018-12-21T20:57:46.195Z,12.00
2018-12-21T21:00:15.725Z,11.90
2018-12-21T21:02:43.195Z,11.90
2018-12-21T21:05:10.695Z,11.90
2018-12-21T21:07:38.171Z,11.90
2018-12-21T21:10:09.028Z,11.90
2018-12-21T21:12:36.550Z,11.90
2018-12-21T21:15:05.779Z,11.90
2018-12-21T21:17:33.333Z,11.90
2018-12-21T21:20:00.717Z,11.90
2018-12-21T21:22:28.300Z,11.90
2018-12-21T21:24:55.816Z,11.90
2018-12-21T21:27:30.382Z,11.90
2018-12-21T21:29:52.814Z,11.90
2018-12-21T21:32:20.432Z,11.80
2018-12-21T21:34:47.977Z,11.90
2018-12-21T21:37:15.616Z,11.90
2018-12-21T21:39:44.054Z,11.80
2018-12-21T21:42:12.060Z,11.80
2018-12-21T21:44:39.868Z,11.80
2018-12-21T21:47:07.382Z,11.80
2018-12-21T21:49:34.888Z,11.80
2018-12-21T21:52:02.609Z,11.80
2018-12-21T21:54:30.123Z,11.70
2018-12-21T21:57:04.322Z,11.70
2018-12-21T21:59:31.861Z,11.70
2018-12-21T22:01:59.488Z,11.70
2018-12-21T22:04:27.065Z,11.70
2018-12-21T22:06:54.563Z,11.70
2018-12-21T22:09:22.038Z,11.70
2018-12-21T22:11:49.529Z,11.70
2018-12-21T22:14:17.012Z,11.70
2018-12-21T22:16:44.660Z,11.70
2018-12-21T22:19:12.215Z,11.60
2018-12-21T22:21:39.708Z,11.60
2018-12-21T22:24:07.126Z,11.60
2018-12-21T22:26:34.665Z,11.60
2018-12-21T22:29:02.149Z,11.50
2018-12-21T22:31:29.540Z,11.50
2018-12-21T22:33:57.053Z,11.50
2018-12-21T22:36:24.865Z,11.50
2018-12-21T22:38:52.393Z,11.40
2018-12-21T22:41:19.927Z,11.50
2018-12-21T22:43:47.467Z,11.40
2018-12-21T22:48:39.667Z,11.50
2018-12-21T22:51:07.175Z,11.40
2018-12-21T22:53:34.672Z,11.40
2018-12-21T22:56:02.200Z,11.40
2018-12-21T22:58:29.729Z,11.40
2018-12-21T23:00:57.353Z,11.40
2018-12-21T23:03:24.837Z,11.40
2018-12-21T23:05:52.198Z,11.40
2018-12-21T23:08:20.033Z,11.40
2018-12-21T23:10:47.536Z,11.40
2018-12-21T23:13:15.049Z,11.40
2018-12-21T23:15:42.585Z,11.40
2018-12-21T23:18:10.105Z,11.40
2018-12-21T23:20:37.580Z,11.40
2018-12-21T23:23:05.077Z,11.40
2018-12-21T23:25:32.547Z,11.40
2018-12-21T23:28:04.921Z,11.30
2018-12-21T23:30:29.598Z,11.40
2018-12-21T23:32:57.078Z,11.40
2018-12-21T23:35:24.571Z,11.40
2018-12-21T23:37:52.057Z,11.40
2018-12-21T23:40:19.571Z,11.40
2018-12-21T23:42:47.053Z,11.40
2018-12-21T23:45:14.535Z,11.30
2018-12-21T23:47:41.997Z,11.30
2018-12-21T23:50:09.523Z,11.30
2018-12-21T23:52:36.994Z,11.30
2018-12-21T23:55:05.249Z,11.30
2018-12-21T23:57:32.729Z,11.30
